sensor_id;sensor_type;location;lat;lon;timestamp;temperature;humidity
82231;DHT22;71832;45.138;9.816;2023-07-31T00:01:07;25.50;74.70
82231;DHT22;71832;45.138;9.816;2023-07-31T00:03:36;25.50;74.70
82231;DHT22;71832;45.138;9.816;2023-07-31T00:06:03;25.50;74.80
82231;DHT22;71832;45.138;9.816;2023-07-31T00:08:31;25.50;74.90
82231;DHT22;71832;45.138;9.816;2023-07-31T00:10:59;25.40;75.00
82231;DHT22;71832;45.138;9.816;2023-07-31T00:13:27;25.40;75.10
82231;DHT22;71832;45.138;9.816;2023-07-31T00:15:55;25.40;75.10
82231;DHT22;71832;45.138;9.816;2023-07-31T00:18:22;25.40;75.10
82231;DHT22;71832;45.138;9.816;2023-07-31T00:20:50;25.30;75.30
82231;DHT22;71832;45.138;9.816;2023-07-31T00:23:17;25.30;75.40
82231;DHT22;71832;45.138;9.816;2023-07-31T00:25:45;25.30;75.60
82231;DHT22;71832;45.138;9.816;2023-07-31T00:28:14;25.20;75.50
82231;DHT22;71832;45.138;9.816;2023-07-31T00:30:42;25.20;75.70
82231;DHT22;71832;45.138;9.816;2023-07-31T00:33:10;25.20;75.80
82231;DHT22;71832;45.138;9.816;2023-07-31T00:35:38;25.20;76.00
82231;DHT22;71832;45.138;9.816;2023-07-31T00:38:06;25.10;76.10
82231;DHT22;71832;45.138;9.816;2023-07-31T00:40:37;25.10;76.20
82231;DHT22;71832;45.138;9.816;2023-07-31T00:43:05;25.10;76.20
82231;DHT22;71832;45.138;9.816;2023-07-31T00:45:33;25.00;76.20
82231;DHT22;71832;45.138;9.816;2023-07-31T00:48:01;25.10;76.30
82231;DHT22;71832;45.138;9.816;2023-07-31T00:50:29;25.00;76.40
82231;DHT22;71832;45.138;9.816;2023-07-31T00:52:57;25.00;76.60
82231;DHT22;71832;45.138;9.816;2023-07-31T00:55:25;25.00;76.80
82231;DHT22;71832;45.138;9.816;2023-07-31T00:57:53;25.00;77.00
82231;DHT22;71832;45.138;9.816;2023-07-31T01:00:22;25.00;77.10
82231;DHT22;71832;45.138;9.816;2023-07-31T01:02:51;25.00;77.30
82231;DHT22;71832;45.138;9.816;2023-07-31T01:05:25;25.00;77.50
82231;DHT22;71832;45.138;9.816;2023-07-31T01:08:03;24.90;77.80
82231;DHT22;71832;45.138;9.816;2023-07-31T01:10:37;24.90;77.80
82231;DHT22;71832;45.138;9.816;2023-07-31T01:13:08;24.90;77.90
82231;DHT22;71832;45.138;9.816;2023-07-31T01:15:37;24.90;77.90
82231;DHT22;71832;45.138;9.816;2023-07-31T01:18:05;24.90;78.00
82231;DHT22;71832;45.138;9.816;2023-07-31T01:20:34;24.80;77.90
82231;DHT22;71832;45.138;9.816;2023-07-31T01:23:21;24.80;77.90
82231;DHT22;71832;45.138;9.816;2023-07-31T01:26:11;24.80;78.00
82231;DHT22;71832;45.138;9.816;2023-07-31T01:28:44;24.80;78.20
82231;DHT22;71832;45.138;9.816;2023-07-31T01:31:20;24.80;78.20
82231;DHT22;71832;45.138;9.816;2023-07-31T01:33:49;24.80;78.20
82231;DHT22;71832;45.138;9.816;2023-07-31T01:36:17;24.70;78.40
82231;DHT22;71832;45.138;9.816;2023-07-31T01:38:45;24.70;78.50
82231;DHT22;71832;45.138;9.816;2023-07-31T01:41:13;24.70;78.50
82231;DHT22;71832;45.138;9.816;2023-07-31T01:43:41;24.70;78.50
82231;DHT22;71832;45.138;9.816;2023-07-31T01:46:09;24.70;78.50
82231;DHT22;71832;45.138;9.816;2023-07-31T01:48:36;24.70;78.50
82231;DHT22;71832;45.138;9.816;2023-07-31T01:51:04;24.60;78.30
82231;DHT22;71832;45.138;9.816;2023-07-31T01:53:32;24.60;78.50
82231;DHT22;71832;45.138;9.816;2023-07-31T01:56:00;24.60;78.60
82231;DHT22;71832;45.138;9.816;2023-07-31T01:58:29;24.60;78.80
82231;DHT22;71832;45.138;9.816;2023-07-31T02:00:57;24.50;78.80
82231;DHT22;71832;45.138;9.816;2023-07-31T02:03:25;24.50;78.90
82231;DHT22;71832;45.138;9.816;2023-07-31T02:05:54;24.50;78.90
82231;DHT22;71832;45.138;9.816;2023-07-31T02:08:24;24.50;79.00
82231;DHT22;71832;45.138;9.816;2023-07-31T02:10:52;24.40;79.00
82231;DHT22;71832;45.138;9.816;2023-07-31T02:13:20;24.40;79.10
82231;DHT22;71832;45.138;9.816;2023-07-31T02:15:49;24.40;79.30
82231;DHT22;71832;45.138;9.816;2023-07-31T02:18:17;24.40;79.30
82231;DHT22;71832;45.138;9.816;2023-07-31T02:20:49;24.40;79.30
82231;DHT22;71832;45.138;9.816;2023-07-31T02:23:18;24.40;79.20
82231;DHT22;71832;45.138;9.816;2023-07-31T02:25:46;24.40;79.10
82231;DHT22;71832;45.138;9.816;2023-07-31T02:28:14;24.40;79.00
82231;DHT22;71832;45.138;9.816;2023-07-31T02:30:45;24.40;79.00
82231;DHT22;71832;45.138;9.816;2023-07-31T02:33:14;24.40;79.20
82231;DHT22;71832;45.138;9.816;2023-07-31T02:35:42;24.30;79.30
82231;DHT22;71832;45.138;9.816;2023-07-31T02:38:10;24.30;79.40
82231;DHT22;71832;45.138;9.816;2023-07-31T02:40:39;24.30;79.40
82231;DHT22;71832;45.138;9.816;2023-07-31T02:43:08;24.30;79.50
82231;DHT22;71832;45.138;9.816;2023-07-31T02:45:36;24.20;79.50
82231;DHT22;71832;45.138;9.816;2023-07-31T02:48:04;24.20;79.60
82231;DHT22;71832;45.138;9.816;2023-07-31T02:50:32;24.20;79.80
82231;DHT22;71832;45.138;9.816;2023-07-31T02:53:00;24.20;79.70
82231;DHT22;71832;45.138;9.816;2023-07-31T02:55:28;24.20;80.10
82231;DHT22;71832;45.138;9.816;2023-07-31T02:57:56;24.10;80.00
82231;DHT22;71832;45.138;9.816;2023-07-31T03:00:25;24.10;80.00
82231;DHT22;71832;45.138;9.816;2023-07-31T03:02:53;24.00;80.00
82231;DHT22;71832;45.138;9.816;2023-07-31T03:05:21;24.00;80.00
82231;DHT22;71832;45.138;9.816;2023-07-31T03:07:48;24.00;80.20
82231;DHT22;71832;45.138;9.816;2023-07-31T03:10:16;24.00;80.10
82231;DHT22;71832;45.138;9.816;2023-07-31T03:12:47;24.00;80.00
82231;DHT22;71832;45.138;9.816;2023-07-31T03:15:14;24.00;80.10
82231;DHT22;71832;45.138;9.816;2023-07-31T03:17:42;24.00;80.30
82231;DHT22;71832;45.138;9.816;2023-07-31T03:20:09;24.00;80.10
82231;DHT22;71832;45.138;9.816;2023-07-31T03:22:37;24.00;80.30
82231;DHT22;71832;45.138;9.816;2023-07-31T03:25:05;24.00;80.20
82231;DHT22;71832;45.138;9.816;2023-07-31T03:27:33;24.00;80.10
82231;DHT22;71832;45.138;9.816;2023-07-31T03:30:01;23.90;80.20
82231;DHT22;71832;45.138;9.816;2023-07-31T03:32:29;23.80;80.30
82231;DHT22;71832;45.138;9.816;2023-07-31T03:34:57;23.80;80.60
82231;DHT22;71832;45.138;9.816;2023-07-31T03:37:24;23.70;80.70
82231;DHT22;71832;45.138;9.816;2023-07-31T03:39:52;23.70;80.80
82231;DHT22;71832;45.138;9.816;2023-07-31T03:42:20;23.60;80.80
82231;DHT22;71832;45.138;9.816;2023-07-31T03:44:48;23.70;80.80
82231;DHT22;71832;45.138;9.816;2023-07-31T03:47:15;23.60;80.70
82231;DHT22;71832;45.138;9.816;2023-07-31T03:49:44;23.60;80.80
82231;DHT22;71832;45.138;9.816;2023-07-31T03:52:11;23.60;80.70
82231;DHT22;71832;45.138;9.816;2023-07-31T03:54:39;23.80;80.60
82231;DHT22;71832;45.138;9.816;2023-07-31T03:57:07;23.80;80.90
82231;DHT22;71832;45.138;9.816;2023-07-31T03:59:34;23.70;80.70
82231;DHT22;71832;45.138;9.816;2023-07-31T04:02:02;23.70;80.50
82231;DHT22;71832;45.138;9.816;2023-07-31T04:04:30;23.80;80.30
82231;DHT22;71832;45.138;9.816;2023-07-31T04:06:58;23.80;80.70
82231;DHT22;71832;45.138;9.816;2023-07-31T04:09:26;23.80;80.50
82231;DHT22;71832;45.138;9.816;2023-07-31T04:11:53;23.80;80.60
82231;DHT22;71832;45.138;9.816;2023-07-31T04:14:21;23.80;80.50
82231;DHT22;71832;45.138;9.816;2023-07-31T04:16:50;23.80;80.10
82231;DHT22;71832;45.138;9.816;2023-07-31T04:19:17;23.80;79.90
82231;DHT22;71832;45.138;9.816;2023-07-31T04:21:45;23.80;79.80
82231;DHT22;71832;45.138;9.816;2023-07-31T04:24:13;23.80;79.70
82231;DHT22;71832;45.138;9.816;2023-07-31T04:26:41;23.80;79.40
82231;DHT22;71832;45.138;9.816;2023-07-31T04:29:09;23.70;79.40
82231;DHT22;71832;45.138;9.816;2023-07-31T04:31:38;23.60;79.60
82231;DHT22;71832;45.138;9.816;2023-07-31T04:34:06;23.60;79.70
82231;DHT22;71832;45.138;9.816;2023-07-31T04:36:35;23.60;79.60
82231;DHT22;71832;45.138;9.816;2023-07-31T04:39:04;23.60;79.80
82231;DHT22;71832;45.138;9.816;2023-07-31T04:41:31;23.60;79.90
82231;DHT22;71832;45.138;9.816;2023-07-31T04:43:58;23.60;80.00
82231;DHT22;71832;45.138;9.816;2023-07-31T04:46:26;23.60;80.10
82231;DHT22;71832;45.138;9.816;2023-07-31T04:48:53;23.60;80.00
82231;DHT22;71832;45.138;9.816;2023-07-31T04:51:20;23.60;80.00
82231;DHT22;71832;45.138;9.816;2023-07-31T04:53:50;23.60;80.20
82231;DHT22;71832;45.138;9.816;2023-07-31T04:56:18;23.70;80.10
82231;DHT22;71832;45.138;9.816;2023-07-31T04:58:46;23.80;80.10
82231;DHT22;71832;45.138;9.816;2023-07-31T05:01:13;23.80;79.90
82231;DHT22;71832;45.138;9.816;2023-07-31T05:03:42;23.90;79.70
82231;DHT22;71832;45.138;9.816;2023-07-31T05:06:09;23.80;79.80
82231;DHT22;71832;45.138;9.816;2023-07-31T05:08:37;23.80;80.00
82231;DHT22;71832;45.138;9.816;2023-07-31T05:11:04;23.80;80.20
82231;DHT22;71832;45.138;9.816;2023-07-31T05:13:32;23.80;80.00
82231;DHT22;71832;45.138;9.816;2023-07-31T05:16:00;23.90;80.00
82231;DHT22;71832;45.138;9.816;2023-07-31T05:18:28;23.90;80.00
82231;DHT22;71832;45.138;9.816;2023-07-31T05:20:57;24.00;80.00
82231;DHT22;71832;45.138;9.816;2023-07-31T05:23:25;24.00;80.10
82231;DHT22;71832;45.138;9.816;2023-07-31T05:25:53;24.00;80.30
82231;DHT22;71832;45.138;9.816;2023-07-31T05:28:22;24.00;80.40
82231;DHT22;71832;45.138;9.816;2023-07-31T05:30:50;24.10;80.20
82231;DHT22;71832;45.138;9.816;2023-07-31T05:33:18;24.20;80.10
82231;DHT22;71832;45.138;9.816;2023-07-31T05:35:46;24.30;80.30
82231;DHT22;71832;45.138;9.816;2023-07-31T05:38:13;24.40;79.30
82231;DHT22;71832;45.138;9.816;2023-07-31T05:40:42;24.40;79.30
82231;DHT22;71832;45.138;9.816;2023-07-31T05:43:09;24.50;79.00
82231;DHT22;71832;45.138;9.816;2023-07-31T05:45:37;24.50;78.50
82231;DHT22;71832;45.138;9.816;2023-07-31T05:48:07;24.60;78.50
82231;DHT22;71832;45.138;9.816;2023-07-31T05:50:35;24.60;78.00
82231;DHT22;71832;45.138;9.816;2023-07-31T05:53:05;24.60;78.30
82231;DHT22;71832;45.138;9.816;2023-07-31T05:55:34;24.60;78.40
82231;DHT22;71832;45.138;9.816;2023-07-31T05:58:02;24.60;77.90
82231;DHT22;71832;45.138;9.816;2023-07-31T06:00:30;24.60;77.80
82231;DHT22;71832;45.138;9.816;2023-07-31T06:02:59;24.70;77.70
82231;DHT22;71832;45.138;9.816;2023-07-31T06:05:28;24.70;77.90
82231;DHT22;71832;45.138;9.816;2023-07-31T06:07:57;24.70;77.90
82231;DHT22;71832;45.138;9.816;2023-07-31T06:10:26;24.70;77.90
82231;DHT22;71832;45.138;9.816;2023-07-31T06:12:55;24.80;77.10
82231;DHT22;71832;45.138;9.816;2023-07-31T06:15:24;24.80;77.40
82231;DHT22;71832;45.138;9.816;2023-07-31T06:17:52;25.00;77.40
82231;DHT22;71832;45.138;9.816;2023-07-31T06:20:20;25.00;76.90
82231;DHT22;71832;45.138;9.816;2023-07-31T06:22:47;25.00;77.10
82231;DHT22;71832;45.138;9.816;2023-07-31T06:25:15;25.00;76.90
82231;DHT22;71832;45.138;9.816;2023-07-31T06:27:42;25.00;76.80
82231;DHT22;71832;45.138;9.816;2023-07-31T06:30:10;25.00;76.90
82231;DHT22;71832;45.138;9.816;2023-07-31T06:32:39;25.10;76.50
82231;DHT22;71832;45.138;9.816;2023-07-31T06:35:08;25.20;76.60
82231;DHT22;71832;45.138;9.816;2023-07-31T06:37:36;25.30;76.50
82231;DHT22;71832;45.138;9.816;2023-07-31T06:40:07;25.40;76.60
82231;DHT22;71832;45.138;9.816;2023-07-31T06:42:36;25.40;75.80
82231;DHT22;71832;45.138;9.816;2023-07-31T06:45:05;25.50;75.50
82231;DHT22;71832;45.138;9.816;2023-07-31T06:47:34;25.60;75.20
82231;DHT22;71832;45.138;9.816;2023-07-31T06:50:02;25.80;73.70
82231;DHT22;71832;45.138;9.816;2023-07-31T06:52:31;25.80;73.00
82231;DHT22;71832;45.138;9.816;2023-07-31T06:55:19;26.00;71.80
82231;DHT22;71832;45.138;9.816;2023-07-31T06:57:49;26.10;71.40
82231;DHT22;71832;45.138;9.816;2023-07-31T07:00:19;26.10;71.70
82231;DHT22;71832;45.138;9.816;2023-07-31T07:02:49;26.20;70.90
82231;DHT22;71832;45.138;9.816;2023-07-31T07:05:18;26.40;71.10
82231;DHT22;71832;45.138;9.816;2023-07-31T07:07:49;26.40;71.20
82231;DHT22;71832;45.138;9.816;2023-07-31T07:10:16;26.50;70.50
82231;DHT22;71832;45.138;9.816;2023-07-31T07:12:44;26.50;69.10
82231;DHT22;71832;45.138;9.816;2023-07-31T07:15:12;26.60;68.50
82231;DHT22;71832;45.138;9.816;2023-07-31T07:17:41;26.60;68.30
82231;DHT22;71832;45.138;9.816;2023-07-31T07:20:09;26.60;67.60
82231;DHT22;71832;45.138;9.816;2023-07-31T07:22:37;26.60;67.60
82231;DHT22;71832;45.138;9.816;2023-07-31T07:25:05;26.70;67.20
82231;DHT22;71832;45.138;9.816;2023-07-31T07:27:34;26.80;66.90
82231;DHT22;71832;45.138;9.816;2023-07-31T07:30:02;26.80;66.60
82231;DHT22;71832;45.138;9.816;2023-07-31T07:32:30;26.90;66.60
82231;DHT22;71832;45.138;9.816;2023-07-31T07:34:58;27.00;66.50
82231;DHT22;71832;45.138;9.816;2023-07-31T07:37:26;27.10;66.30
82231;DHT22;71832;45.138;9.816;2023-07-31T07:39:54;27.20;65.30
82231;DHT22;71832;45.138;9.816;2023-07-31T07:42:23;27.30;65.40
82231;DHT22;71832;45.138;9.816;2023-07-31T07:44:52;27.40;65.70
82231;DHT22;71832;45.138;9.816;2023-07-31T07:47:20;27.50;65.00
82231;DHT22;71832;45.138;9.816;2023-07-31T07:49:49;27.50;64.50
82231;DHT22;71832;45.138;9.816;2023-07-31T07:52:18;27.50;64.00
82231;DHT22;71832;45.138;9.816;2023-07-31T07:54:47;27.50;63.60
82231;DHT22;71832;45.138;9.816;2023-07-31T07:57:15;27.50;64.00
82231;DHT22;71832;45.138;9.816;2023-07-31T07:59:44;27.50;64.30
82231;DHT22;71832;45.138;9.816;2023-07-31T08:02:13;27.50;64.10
82231;DHT22;71832;45.138;9.816;2023-07-31T08:04:41;27.60;64.20
82231;DHT22;71832;45.138;9.816;2023-07-31T08:07:11;27.70;63.90
82231;DHT22;71832;45.138;9.816;2023-07-31T08:09:39;27.90;64.20
82231;DHT22;71832;45.138;9.816;2023-07-31T08:12:07;28.00;63.80
82231;DHT22;71832;45.138;9.816;2023-07-31T08:14:35;28.00;64.00
82231;DHT22;71832;45.138;9.816;2023-07-31T08:17:03;28.00;64.10
82231;DHT22;71832;45.138;9.816;2023-07-31T08:19:31;27.90;64.10
82231;DHT22;71832;45.138;9.816;2023-07-31T08:21:59;28.00;64.40
82231;DHT22;71832;45.138;9.816;2023-07-31T08:24:27;28.00;64.40
82231;DHT22;71832;45.138;9.816;2023-07-31T08:26:54;28.00;63.60
82231;DHT22;71832;45.138;9.816;2023-07-31T08:29:22;28.10;63.60
82231;DHT22;71832;45.138;9.816;2023-07-31T08:31:50;28.10;63.70
82231;DHT22;71832;45.138;9.816;2023-07-31T08:34:18;28.10;63.10
82231;DHT22;71832;45.138;9.816;2023-07-31T08:36:45;28.10;63.50
82231;DHT22;71832;45.138;9.816;2023-07-31T08:39:13;28.10;62.70
82231;DHT22;71832;45.138;9.816;2023-07-31T08:41:41;28.10;62.40
82231;DHT22;71832;45.138;9.816;2023-07-31T08:44:10;28.10;62.40
82231;DHT22;71832;45.138;9.816;2023-07-31T08:46:40;28.20;61.60
82231;DHT22;71832;45.138;9.816;2023-07-31T08:49:10;28.30;62.10
82231;DHT22;71832;45.138;9.816;2023-07-31T08:51:39;28.30;62.20
82231;DHT22;71832;45.138;9.816;2023-07-31T08:54:09;28.40;60.90
82231;DHT22;71832;45.138;9.816;2023-07-31T08:56:37;28.50;60.40
82231;DHT22;71832;45.138;9.816;2023-07-31T08:59:07;28.50;59.80
82231;DHT22;71832;45.138;9.816;2023-07-31T09:01:40;28.50;60.50
82231;DHT22;71832;45.138;9.816;2023-07-31T09:04:11;28.60;61.10
82231;DHT22;71832;45.138;9.816;2023-07-31T09:06:42;28.70;60.60
82231;DHT22;71832;45.138;9.816;2023-07-31T09:09:10;28.70;59.80
82231;DHT22;71832;45.138;9.816;2023-07-31T09:11:39;28.70;60.30
82231;DHT22;71832;45.138;9.816;2023-07-31T09:14:09;28.70;59.90
82231;DHT22;71832;45.138;9.816;2023-07-31T09:16:52;28.80;60.40
82231;DHT22;71832;45.138;9.816;2023-07-31T09:19:39;28.90;59.30
82231;DHT22;71832;45.138;9.816;2023-07-31T09:22:08;28.90;59.40
82231;DHT22;71832;45.138;9.816;2023-07-31T09:24:36;28.90;59.60
82231;DHT22;71832;45.138;9.816;2023-07-31T09:27:05;29.00;60.00
82231;DHT22;71832;45.138;9.816;2023-07-31T09:29:34;29.00;58.80
82231;DHT22;71832;45.138;9.816;2023-07-31T09:32:02;29.10;59.20
82231;DHT22;71832;45.138;9.816;2023-07-31T09:34:40;29.10;58.30
82231;DHT22;71832;45.138;9.816;2023-07-31T09:37:08;29.10;58.80
82231;DHT22;71832;45.138;9.816;2023-07-31T09:39:48;29.20;58.60
82231;DHT22;71832;45.138;9.816;2023-07-31T09:42:26;29.20;58.60
82231;DHT22;71832;45.138;9.816;2023-07-31T09:45:07;29.30;59.10
82231;DHT22;71832;45.138;9.816;2023-07-31T09:47:36;29.40;58.80
82231;DHT22;71832;45.138;9.816;2023-07-31T09:50:08;29.40;58.90
82231;DHT22;71832;45.138;9.816;2023-07-31T09:52:39;29.50;58.40
82231;DHT22;71832;45.138;9.816;2023-07-31T09:55:07;29.50;57.80
82231;DHT22;71832;45.138;9.816;2023-07-31T09:57:38;29.50;58.10
82231;DHT22;71832;45.138;9.816;2023-07-31T10:00:07;29.50;58.40
82231;DHT22;71832;45.138;9.816;2023-07-31T10:02:38;29.60;58.20
82231;DHT22;71832;45.138;9.816;2023-07-31T10:05:07;29.70;57.30
82231;DHT22;71832;45.138;9.816;2023-07-31T10:07:38;29.50;57.40
82231;DHT22;71832;45.138;9.816;2023-07-31T10:10:08;29.50;58.20
82231;DHT22;71832;45.138;9.816;2023-07-31T10:12:36;29.60;58.40
82231;DHT22;71832;45.138;9.816;2023-07-31T10:15:05;29.70;58.90
82231;DHT22;71832;45.138;9.816;2023-07-31T10:17:34;29.80;57.20
82231;DHT22;71832;45.138;9.816;2023-07-31T10:20:03;29.80;57.00
82231;DHT22;71832;45.138;9.816;2023-07-31T10:22:32;29.90;56.60
82231;DHT22;71832;45.138;9.816;2023-07-31T10:25:00;30.00;57.50
82231;DHT22;71832;45.138;9.816;2023-07-31T10:27:28;30.00;56.60
82231;DHT22;71832;45.138;9.816;2023-07-31T10:29:56;30.00;55.90
82231;DHT22;71832;45.138;9.816;2023-07-31T10:32:25;30.00;55.90
82231;DHT22;71832;45.138;9.816;2023-07-31T10:34:54;30.00;55.50
82231;DHT22;71832;45.138;9.816;2023-07-31T10:37:43;30.10;55.90
82231;DHT22;71832;45.138;9.816;2023-07-31T10:40:13;30.10;56.40
82231;DHT22;71832;45.138;9.816;2023-07-31T10:42:54;30.20;54.30
82231;DHT22;71832;45.138;9.816;2023-07-31T10:45:31;30.30;54.80
82231;DHT22;71832;45.138;9.816;2023-07-31T10:47:59;30.30;54.20
82231;DHT22;71832;45.138;9.816;2023-07-31T10:50:29;30.40;56.30
82231;DHT22;71832;45.138;9.816;2023-07-31T10:53:34;30.50;55.40
82231;DHT22;71832;45.138;9.816;2023-07-31T10:56:05;30.50;54.40
82231;DHT22;71832;45.138;9.816;2023-07-31T10:58:34;30.50;54.90
82231;DHT22;71832;45.138;9.816;2023-07-31T11:01:05;30.50;56.20
82231;DHT22;71832;45.138;9.816;2023-07-31T11:03:43;30.60;55.90
82231;DHT22;71832;45.138;9.816;2023-07-31T11:06:12;30.70;55.20
82231;DHT22;71832;45.138;9.816;2023-07-31T11:08:44;30.70;53.40
82231;DHT22;71832;45.138;9.816;2023-07-31T11:11:14;30.70;53.50
82231;DHT22;71832;45.138;9.816;2023-07-31T11:13:45;30.70;54.70
82231;DHT22;71832;45.138;9.816;2023-07-31T11:16:15;30.80;55.80
82231;DHT22;71832;45.138;9.816;2023-07-31T11:18:44;30.90;54.60
82231;DHT22;71832;45.138;9.816;2023-07-31T11:21:17;30.90;52.50
82231;DHT22;71832;45.138;9.816;2023-07-31T11:23:52;30.90;53.80
82231;DHT22;71832;45.138;9.816;2023-07-31T11:26:20;30.90;54.00
82231;DHT22;71832;45.138;9.816;2023-07-31T11:28:48;31.00;52.70
82231;DHT22;71832;45.138;9.816;2023-07-31T11:31:17;31.00;52.70
82231;DHT22;71832;45.138;9.816;2023-07-31T11:33:45;31.10;52.60
82231;DHT22;71832;45.138;9.816;2023-07-31T11:36:22;31.10;52.00
82231;DHT22;71832;45.138;9.816;2023-07-31T11:38:51;31.10;52.10
82231;DHT22;71832;45.138;9.816;2023-07-31T11:41:19;31.10;51.40
82231;DHT22;71832;45.138;9.816;2023-07-31T11:43:47;31.00;52.30
82231;DHT22;71832;45.138;9.816;2023-07-31T11:46:15;31.00;52.00
82231;DHT22;71832;45.138;9.816;2023-07-31T11:48:45;31.10;52.60
82231;DHT22;71832;45.138;9.816;2023-07-31T11:51:14;31.10;50.80
82231;DHT22;71832;45.138;9.816;2023-07-31T11:53:44;31.10;50.70
82231;DHT22;71832;45.138;9.816;2023-07-31T11:56:16;31.20;51.70
82231;DHT22;71832;45.138;9.816;2023-07-31T11:58:47;31.30;51.80
82231;DHT22;71832;45.138;9.816;2023-07-31T12:01:18;31.30;51.70
82231;DHT22;71832;45.138;9.816;2023-07-31T12:03:47;31.30;52.10
82231;DHT22;71832;45.138;9.816;2023-07-31T12:06:15;31.30;51.80
82231;DHT22;71832;45.138;9.816;2023-07-31T12:08:43;31.30;51.60
82231;DHT22;71832;45.138;9.816;2023-07-31T12:11:12;31.40;52.90
82231;DHT22;71832;45.138;9.816;2023-07-31T12:13:42;31.40;51.40
82231;DHT22;71832;45.138;9.816;2023-07-31T12:16:09;31.40;51.40
82231;DHT22;71832;45.138;9.816;2023-07-31T12:18:39;31.40;51.90
82231;DHT22;71832;45.138;9.816;2023-07-31T12:21:08;31.40;52.20
82231;DHT22;71832;45.138;9.816;2023-07-31T12:23:38;31.40;50.70
82231;DHT22;71832;45.138;9.816;2023-07-31T12:28:42;31.50;51.90
82231;DHT22;71832;45.138;9.816;2023-07-31T12:31:12;31.50;51.10
82231;DHT22;71832;45.138;9.816;2023-07-31T12:33:41;31.60;50.20
82231;DHT22;71832;45.138;9.816;2023-07-31T12:36:11;31.60;51.20
82231;DHT22;71832;45.138;9.816;2023-07-31T12:38:40;31.70;50.50
82231;DHT22;71832;45.138;9.816;2023-07-31T12:41:08;31.80;50.60
82231;DHT22;71832;45.138;9.816;2023-07-31T12:43:37;31.80;52.30
82231;DHT22;71832;45.138;9.816;2023-07-31T12:46:05;31.90;50.90
82231;DHT22;71832;45.138;9.816;2023-07-31T12:48:35;31.80;50.20
82231;DHT22;71832;45.138;9.816;2023-07-31T12:51:04;31.70;49.60
82231;DHT22;71832;45.138;9.816;2023-07-31T12:53:33;31.60;47.80
82231;DHT22;71832;45.138;9.816;2023-07-31T12:56:03;31.50;48.30
82231;DHT22;71832;45.138;9.816;2023-07-31T12:58:31;31.40;49.10
82231;DHT22;71832;45.138;9.816;2023-07-31T13:00:59;31.40;50.40
82231;DHT22;71832;45.138;9.816;2023-07-31T13:03:29;31.50;50.90
82231;DHT22;71832;45.138;9.816;2023-07-31T13:05:57;31.70;50.70
82231;DHT22;71832;45.138;9.816;2023-07-31T13:08:24;31.90;51.20
82231;DHT22;71832;45.138;9.816;2023-07-31T13:10:51;32.00;49.80
82231;DHT22;71832;45.138;9.816;2023-07-31T13:13:19;32.00;50.00
82231;DHT22;71832;45.138;9.816;2023-07-31T13:15:48;32.00;48.00
82231;DHT22;71832;45.138;9.816;2023-07-31T13:18:16;32.00;48.80
82231;DHT22;71832;45.138;9.816;2023-07-31T13:20:44;32.10;49.00
82231;DHT22;71832;45.138;9.816;2023-07-31T13:23:11;32.10;51.20
82231;DHT22;71832;45.138;9.816;2023-07-31T13:25:39;32.20;50.00
82231;DHT22;71832;45.138;9.816;2023-07-31T13:28:07;32.20;49.50
82231;DHT22;71832;45.138;9.816;2023-07-31T13:30:36;32.20;48.00
82231;DHT22;71832;45.138;9.816;2023-07-31T13:33:03;32.20;47.70
82231;DHT22;71832;45.138;9.816;2023-07-31T13:35:32;32.20;48.70
82231;DHT22;71832;45.138;9.816;2023-07-31T13:38:00;32.20;48.40
82231;DHT22;71832;45.138;9.816;2023-07-31T13:40:29;32.20;48.30
82231;DHT22;71832;45.138;9.816;2023-07-31T13:42:56;32.20;47.60
82231;DHT22;71832;45.138;9.816;2023-07-31T13:45:24;32.20;47.90
82231;DHT22;71832;45.138;9.816;2023-07-31T13:47:52;32.20;49.30
82231;DHT22;71832;45.138;9.816;2023-07-31T13:50:19;32.30;49.30
82231;DHT22;71832;45.138;9.816;2023-07-31T13:52:49;32.40;48.50
82231;DHT22;71832;45.138;9.816;2023-07-31T13:55:17;32.40;48.00
82231;DHT22;71832;45.138;9.816;2023-07-31T13:57:45;32.50;47.80
82231;DHT22;71832;45.138;9.816;2023-07-31T14:00:13;32.50;48.80
82231;DHT22;71832;45.138;9.816;2023-07-31T14:02:41;32.60;48.50
82231;DHT22;71832;45.138;9.816;2023-07-31T14:05:10;32.70;46.50
82231;DHT22;71832;45.138;9.816;2023-07-31T14:07:39;32.70;46.00
82231;DHT22;71832;45.138;9.816;2023-07-31T14:10:07;32.80;48.00
82231;DHT22;71832;45.138;9.816;2023-07-31T14:12:35;32.80;48.50
82231;DHT22;71832;45.138;9.816;2023-07-31T14:15:02;32.90;48.20
82231;DHT22;71832;45.138;9.816;2023-07-31T14:17:30;33.00;47.70
82231;DHT22;71832;45.138;9.816;2023-07-31T14:19:58;33.00;47.30
82231;DHT22;71832;45.138;9.816;2023-07-31T14:22:30;33.00;46.70
82231;DHT22;71832;45.138;9.816;2023-07-31T14:25:01;33.00;46.50
82231;DHT22;71832;45.138;9.816;2023-07-31T14:27:29;33.00;47.30
82231;DHT22;71832;45.138;9.816;2023-07-31T14:29:56;33.00;46.00
82231;DHT22;71832;45.138;9.816;2023-07-31T14:32:24;33.00;46.40
82231;DHT22;71832;45.138;9.816;2023-07-31T14:34:54;33.00;46.50
82231;DHT22;71832;45.138;9.816;2023-07-31T14:37:22;33.10;46.90
82231;DHT22;71832;45.138;9.816;2023-07-31T14:39:50;33.10;45.90
82231;DHT22;71832;45.138;9.816;2023-07-31T14:42:17;33.20;46.20
82231;DHT22;71832;45.138;9.816;2023-07-31T14:44:45;33.10;46.20
82231;DHT22;71832;45.138;9.816;2023-07-31T14:47:13;33.10;46.70
82231;DHT22;71832;45.138;9.816;2023-07-31T14:49:41;33.10;46.00
82231;DHT22;71832;45.138;9.816;2023-07-31T14:52:08;33.10;46.90
82231;DHT22;71832;45.138;9.816;2023-07-31T14:54:36;33.10;47.90
82231;DHT22;71832;45.138;9.816;2023-07-31T14:57:04;33.20;47.80
82231;DHT22;71832;45.138;9.816;2023-07-31T14:59:31;33.20;46.40
82231;DHT22;71832;45.138;9.816;2023-07-31T15:01:59;33.10;46.60
82231;DHT22;71832;45.138;9.816;2023-07-31T15:04:27;33.10;46.50
82231;DHT22;71832;45.138;9.816;2023-07-31T15:06:55;33.10;46.50
82231;DHT22;71832;45.138;9.816;2023-07-31T15:09:23;33.10;46.40
82231;DHT22;71832;45.138;9.816;2023-07-31T15:11:51;33.10;47.20
82231;DHT22;71832;45.138;9.816;2023-07-31T15:14:20;33.20;46.10
82231;DHT22;71832;45.138;9.816;2023-07-31T15:16:48;33.30;46.70
82231;DHT22;71832;45.138;9.816;2023-07-31T15:19:16;33.30;46.40
82231;DHT22;71832;45.138;9.816;2023-07-31T15:21:44;33.40;46.80
82231;DHT22;71832;45.138;9.816;2023-07-31T15:24:13;33.40;46.60
82231;DHT22;71832;45.138;9.816;2023-07-31T15:26:41;33.40;46.50
82231;DHT22;71832;45.138;9.816;2023-07-31T15:29:09;33.50;45.50
82231;DHT22;71832;45.138;9.816;2023-07-31T15:31:39;33.60;45.90
82231;DHT22;71832;45.138;9.816;2023-07-31T15:34:07;33.70;44.90
82231;DHT22;71832;45.138;9.816;2023-07-31T15:36:35;33.90;44.80
82231;DHT22;71832;45.138;9.816;2023-07-31T15:39:02;34.00;44.20
82231;DHT22;71832;45.138;9.816;2023-07-31T15:41:30;34.20;43.90
82231;DHT22;71832;45.138;9.816;2023-07-31T15:43:57;34.40;43.90